Time;durP1;ratioP1;P1;durP2;ratioP2;P2;SDS_P1;SDS_P2;PMS_P1;PMS_P2;Temp;Humidity;BMP_temperature;BMP_pressure;BME280_temperature;BME280_humidity;BME280_pressure;Samples;Min_cycle;Max_cycle;Signal;HPM_P1;HPM_P2
2022/01/14 00:01:09;;;;;;;;;;;;;;;-0.72;90.96;102430.44;4968715;29;990;-88
2022/01/14 00:03:35;;;;;;;;;;;;;;;-0.76;91.03;102434.41;4956830;28;681;-86
2022/01/14 00:06:00;;;;;;;;;;;;;;;-0.76;91.10;102429.88;4955579;29;1209;-87
2022/01/14 00:08:25;;;;;;;;;;;;;;;-0.76;91.18;102427.19;4956807;28;1281;-87
2022/01/14 00:10:50;;;;;;;;;;;;;;;-0.72;91.37;102421.50;4955879;29;1010;-88
2022/01/14 00:16:03;;;;;;;;;;;;;;;-0.73;90.96;102419.81;4976062;28;1906;-88
2022/01/14 00:18:28;;;;;;;;;;;;;;;-0.76;91.15;102426.34;4974320;28;1327;-88
2022/01/14 00:20:53;;;;;;;;;;;;;;;-0.74;91.21;102423.50;4975746;28;859;-87
2022/01/14 00:23:26;;;;;;;;;;;;;;;-0.79;90.95;102413.25;4974763;28;1367;-87
2022/01/14 00:34:04;;;;;;;;;;;;;;;-1.41;90.83;102396.34;4975607;28;662;-88
2022/01/14 00:36:29;;;;;;;;;;;;;;;-1.38;91.01;102392.53;4974106;28;1906;-88
2022/01/14 00:38:54;;;;;;;;;;;;;;;-1.39;90.66;102393.53;4974352;28;894;-87
2022/01/14 00:41:19;;;;;;;;;;;;;;;-1.33;90.42;102384.84;4973942;28;998;-87
2022/01/14 00:43:45;;;;;;;;;;;;;;;-1.28;90.63;102388.75;4973968;28;1042;-88
2022/01/14 00:46:10;;;;;;;;;;;;;;;-1.31;90.32;102383.69;4973950;28;1339;-88
2022/01/14 00:48:38;;;;;;;;;;;;;;;-1.31;90.33;102383.69;4974061;28;1311;-88
2022/01/14 00:51:03;;;;;;;;;;;;;;;-1.27;90.29;102390.41;4975186;28;866;-87
2022/01/14 00:53:29;;;;;;;;;;;;;;;-1.26;90.44;102389.41;4973791;28;1161;-87
2022/01/14 00:56:05;;;;;;;;;;;;;;;-1.31;89.99;102389.06;4973850;28;1961;-87
2022/01/14 01:01:14;;;;;;;;;;;;;;;-1.49;89.96;102387.41;4957407;28;1421;-87
2022/01/14 01:03:39;;;;;;;;;;;;;;;-1.64;89.83;102381.75;4973857;28;1097;-87
2022/01/14 01:06:05;;;;;;;;;;;;;;;-1.56;90.33;102385.34;4973698;28;1350;-87
2022/01/14 01:08:31;;;;;;;;;;;;;;;-1.68;90.02;102381.19;4973654;28;1418;-86
2022/01/14 01:10:57;;;;;;;;;;;;;;;-1.65;90.08;102374.69;4973706;28;1236;-87
2022/01/14 01:13:27;;;;;;;;;;;;;;;-1.59;89.87;102374.06;4974818;28;860;-87
2022/01/14 01:15:53;;;;;;;;;;;;;;;-1.71;89.72;102367.25;4973691;28;1903;-87
2022/01/14 01:18:20;;;;;;;;;;;;;;;-1.64;89.87;102371.84;4969139;28;1579;-87
2022/01/14 01:20:45;;;;;;;;;;;;;;;-1.61;89.54;102376.03;4973723;28;1213;-87
2022/01/14 01:23:10;;;;;;;;;;;;;;;-1.59;89.78;102374.06;4973662;28;1201;-87
2022/01/14 01:25:41;;;;;;;;;;;;;;;-1.77;89.45;102374.06;4974831;28;1045;-87
2022/01/14 01:28:07;;;;;;;;;;;;;;;-1.71;89.68;102378.00;4973459;28;1376;-87
2022/01/14 01:32:58;;;;;;;;;;;;;;;-1.73;89.18;102382.66;4975020;28;915;-87
2022/01/14 01:35:23;;;;;;;;;;;;;;;-1.73;89.20;102382.66;4970735;28;1914;-87
2022/01/14 01:37:48;;;;;;;;;;;;;;;-1.74;89.26;102394.41;4954214;29;1338;-87
2022/01/14 01:40:16;;;;;;;;;;;;;;;-1.79;89.07;102388.66;4955381;28;1030;-87
2022/01/14 01:42:43;;;;;;;;;;;;;;;-1.83;88.60;102388.09;4953973;29;1263;-87
2022/01/14 01:45:11;;;;;;;;;;;;;;;-1.93;88.68;102382.81;4954205;29;1288;-87
2022/01/14 01:47:37;;;;;;;;;;;;;;;-1.85;88.58;102383.88;4954050;29;1233;-87
2022/01/14 01:50:10;;;;;;;;;;;;;;;-1.99;88.60;102385.25;4954319;29;1344;-87
2022/01/14 01:52:35;;;;;;;;;;;;;;;-2.02;88.89;102389.09;4953908;29;1276;-87
2022/01/14 01:55:00;;;;;;;;;;;;;;;-1.91;88.92;102386.19;4953906;29;1895;-87
2022/01/14 01:57:25;;;;;;;;;;;;;;;-1.89;88.47;102383.34;4972132;28;1545;-87
2022/01/14 01:59:50;;;;;;;;;;;;;;;-1.82;88.92;102380.91;4973433;28;1061;-87
2022/01/14 02:02:15;;;;;;;;;;;;;;;-1.82;88.61;102380.91;4973139;28;1089;-87
2022/01/14 02:04:41;;;;;;;;;;;;;;;-1.92;88.61;102381.81;4972698;28;1473;-88
2022/01/14 02:07:06;;;;;;;;;;;;;;;-1.97;89.01;102380.59;4973132;28;1238;-86
2022/01/14 02:09:31;;;;;;;;;;;;;;;-2.00;88.90;102379.06;4973206;28;1240;-88
2022/01/14 02:11:57;;;;;;;;;;;;;;;-2.01;88.50;102371.16;4972934;28;1394;-88
2022/01/14 02:14:52;;;;;;;;;;;;;;;-2.01;88.68;102363.94;4973230;28;1336;-87
2022/01/14 02:17:36;;;;;;;;;;;;;;;-2.14;88.25;102363.50;4975004;28;1934;-88
2022/01/14 02:22:51;;;;;;;;;;;;;;;-2.24;88.72;102351.97;4978195;28;637;-88
2022/01/14 02:25:23;;;;;;;;;;;;;;;-2.28;88.53;102358.63;4968738;28;1341;-88
2022/01/14 02:27:48;;;;;;;;;;;;;;;-2.15;88.43;102353.75;4957207;28;1257;-88
2022/01/14 02:30:14;;;;;;;;;;;;;;;-2.31;88.37;102348.22;4957411;29;1316;-87
2022/01/14 02:32:39;;;;;;;;;;;;;;;-2.33;88.09;102340.31;4964428;28;1461;-87
2022/01/14 02:35:04;;;;;;;;;;;;;;;-2.35;88.65;102347.66;4976745;28;1976;-88
2022/01/14 02:37:29;;;;;;;;;;;;;;;-2.29;88.77;102341.69;4976450;28;1250;-87
2022/01/14 02:39:55;;;;;;;;;;;;;;;-2.22;88.63;102343.78;4976553;28;859;-86
2022/01/14 02:42:20;;;;;;;;;;;;;;;-2.27;88.46;102338.84;4976113;28;986;-87
2022/01/14 02:44:48;;;;;;;;;;;;;;;-2.37;88.32;102338.06;4976358;28;1004;-87
2022/01/14 02:47:13;;;;;;;;;;;;;;;-2.38;88.74;102341.75;4976395;28;1341;-85
2022/01/14 02:49:39;;;;;;;;;;;;;;;-2.40;88.71;102349.13;4971596;28;1437;-87
2022/01/14 02:52:05;;;;;;;;;;;;;;;-2.39;88.44;102338.25;4956787;29;1337;-87
2022/01/14 02:54:51;;;;;;;;;;;;;;;-2.44;88.16;102339.69;4956862;29;1230;-88
2022/01/14 02:57:17;;;;;;;;;;;;;;;-2.45;88.35;102338.84;4966542;28;1982;-88
2022/01/14 02:59:43;;;;;;;;;;;;;;;-2.56;88.54;102340.91;4977415;28;990;-87
2022/01/14 03:02:09;;;;;;;;;;;;;;;-2.44;88.66;102335.16;4975927;28;1264;-88
2022/01/14 03:04:39;;;;;;;;;;;;;;;-2.38;88.43;102331.03;4977134;28;839;-87
2022/01/14 03:07:04;;;;;;;;;;;;;;;-2.46;88.27;102336.28;4969615;28;1528;-87
2022/01/14 03:09:30;;;;;;;;;;;;;;;-2.54;88.37;102333.53;4972802;28;1196;-87
2022/01/14 03:11:57;;;;;;;;;;;;;;;-2.46;88.64;102333.63;4972452;28;1266;-88
2022/01/14 03:14:24;;;;;;;;;;;;;;;-2.46;88.37;102337.13;4972665;28;1375;-87
2022/01/14 03:16:50;;;;;;;;;;;;;;;-2.47;87.92;102334.63;4972548;28;1963;-88
2022/01/14 03:19:25;;;;;;;;;;;;;;;-2.46;88.15;102338.97;4972677;28;1185;-87
2022/01/14 03:21:53;;;;;;;;;;;;;;;-2.45;88.14;102354.06;4976063;28;1539;-87
2022/01/14 03:27:02;;;;;;;;;;;;;;;-2.56;88.47;102348.94;4976828;28;1338;-88
2022/01/14 03:29:27;;;;;;;;;;;;;;;-2.72;88.26;102352.25;4959409;28;1274;-88
2022/01/14 03:31:53;;;;;;;;;;;;;;;-2.62;88.65;102363.75;4959132;28;1173;-88
2022/01/14 03:34:18;;;;;;;;;;;;;;;-2.49;88.49;102363.44;4976795;28;962;-87
2022/01/14 06:09:08;;;;;;;;;;;;;;;-0.60;93.47;102253.50;5017289;28;1263;-91
2022/01/14 06:11:33;;;;;;;;;;;;;;;-0.64;93.23;102253.00;5000215;28;982;-92
2022/01/14 06:13:58;;;;;;;;;;;;;;;-0.68;93.32;102248.13;5000464;28;1094;-93
2022/01/14 06:16:23;;;;;;;;;;;;;;;-0.66;93.56;102246.09;4990828;28;1906;-93
2022/01/14 06:18:49;;;;;;;;;;;;;;;-0.62;93.44;102244.75;4981223;28;1293;-93
2022/01/14 06:21:14;;;;;;;;;;;;;;;-0.61;93.59;102233.84;4981410;28;1237;-93
2022/01/14 06:23:40;;;;;;;;;;;;;;;-0.64;93.51;102239.53;4981253;28;1140;-93
2022/01/14 06:26:06;;;;;;;;;;;;;;;-0.65;93.93;102237.00;4980846;28;1205;-93
2022/01/14 06:28:31;;;;;;;;;;;;;;;-0.65;93.73;102229.78;4981125;28;1281;-93
2022/01/14 06:30:56;;;;;;;;;;;;;;;-0.67;93.58;102231.78;4980821;28;970;-93
2022/01/14 06:33:21;;;;;;;;;;;;;;;-0.63;93.92;102233.16;4983003;28;1281;-93
2022/01/14 06:35:47;;;;;;;;;;;;;;;-0.58;94.18;102241.56;4982050;28;1890;-93
2022/01/14 06:38:12;;;;;;;;;;;;;;;-0.63;93.92;102233.16;4984425;28;1268;-93
2022/01/14 06:40:37;;;;;;;;;;;;;;;-0.59;94.03;102233.66;4981873;28;1309;-93
2022/01/14 06:43:04;;;;;;;;;;;;;;;-0.60;94.08;102240.91;4981706;28;1423;-93
2022/01/14 06:45:29;;;;;;;;;;;;;;;-0.61;94.03;102241.91;4980757;28;1581;-93
2022/01/14 06:47:55;;;;;;;;;;;;;;;-0.59;93.86;102229.13;4984403;28;1273;-93
2022/01/14 06:50:20;;;;;;;;;;;;;;;-0.54;94.06;102231.34;4986488;28;974;-93
2022/01/14 06:52:45;;;;;;;;;;;;;;;-0.56;94.06;102222.56;4987720;28;1166;-93
2022/01/14 06:55:11;;;;;;;;;;;;;;;-0.58;94.35;102225.44;4983294;28;1395;-93
2022/01/14 06:57:36;;;;;;;;;;;;;;;-0.57;94.42;102221.75;4980888;28;1890;-93
2022/01/14 07:00:09;;;;;;;;;;;;;;;-0.54;94.33;102226.78;4980621;28;1394;-93
2022/01/14 07:02:35;;;;;;;;;;;;;;;-0.49;94.29;102227.13;4979940;28;1257;-92
2022/01/14 07:05:00;;;;;;;;;;;;;;;-0.49;94.28;102215.53;4980214;28;1179;-93
2022/01/14 07:07:32;;;;;;;;;;;;;;;-0.49;94.28;102219.06;4998597;28;1186;-94
2022/01/14 07:10:18;;;;;;;;;;;;;;;-0.45;94.25;102227.66;4998430;28;1266;-93
2022/01/14 07:12:44;;;;;;;;;;;;;;;-0.44;94.47;102229.34;4982769;28;1294;-95
2022/01/14 07:15:10;;;;;;;;;;;;;;;-0.44;94.58;102227.50;4982952;28;1225;-94
2022/01/14 07:17:36;;;;;;;;;;;;;;;-0.40;94.66;102242.28;4983629;28;1902;-95
2022/01/14 07:20:07;;;;;;;;;;;;;;;-0.40;94.67;102241.44;4992526;28;1341;-95
2022/01/14 07:22:32;;;;;;;;;;;;;;;-0.35;94.50;102232.88;4978145;28;1228;-94
2022/01/14 07:24:58;;;;;;;;;;;;;;;-0.32;94.79;102249.50;4982982;28;1541;-94
2022/01/14 07:27:24;;;;;;;;;;;;;;;-0.29;94.68;102248.34;4983433;28;1264;-95
2022/01/14 07:29:49;;;;;;;;;;;;;;;-0.27;94.70;102243.66;4989291;28;1154;-94
2022/01/14 07:32:14;;;;;;;;;;;;;;;-0.24;94.61;102238.75;4994889;28;1186;-94
2022/01/14 07:34:39;;;;;;;;;;;;;;;-0.26;94.96;102240.78;4983327;28;1292;-94
2022/01/14 07:37:37;;;;;;;;;;;;;;;-0.27;94.71;102249.03;4979524;28;1890;-93
2022/01/14 07:40:02;;;;;;;;;;;;;;;-0.26;94.91;102246.19;4987957;28;1478;-94
2022/01/14 07:42:28;;;;;;;;;;;;;;;-0.19;95.01;102246.34;4983945;28;1372;-94
2022/01/14 07:44:53;;;;;;;;;;;;;;;-0.21;94.98;102249.19;4985270;28;1415;-95
2022/01/14 07:47:18;;;;;;;;;;;;;;;-0.21;94.82;102238.44;4981593;28;1313;-95
2022/01/14 07:49:43;;;;;;;;;;;;;;;-0.17;94.99;102238.94;4980360;28;1240;-93
2022/01/14 07:52:09;;;;;;;;;;;;;;;-0.18;95.12;102235.41;4982509;28;1280;-94
2022/01/14 07:54:34;;;;;;;;;;;;;;;-0.18;95.13;102245.34;4981879;28;1194;-93
2022/01/14 07:57:00;;;;;;;;;;;;;;;-0.17;95.12;102242.44;4982694;28;1902;-95
2022/01/14 07:59:27;;;;;;;;;;;;;;;-0.14;95.24;102244.81;4983435;28;1298;-94
2022/01/14 08:01:55;;;;;;;;;;;;;;;-0.09;95.17;102249.72;4979507;28;1225;-94
2022/01/14 08:04:20;;;;;;;;;;;;;;;-0.10;95.28;102256.09;4979905;28;1336;-93
2022/01/14 08:06:48;;;;;;;;;;;;;;;-0.10;95.16;102266.88;4981082;28;1284;-94
2022/01/14 08:09:14;;;;;;;;;;;;;;;-0.13;95.26;102267.19;4979483;28;1320;-94
2022/01/14 08:11:40;;;;;;;;;;;;;;;-0.13;95.45;102278.81;4979537;28;1257;-94
2022/01/14 08:14:05;;;;;;;;;;;;;;;-0.09;95.53;102279.31;4979222;28;1236;-94
2022/01/14 08:16:46;;;;;;;;;;;;;;;-0.11;95.44;102276.78;4979639;28;1895;-93
2022/01/14 08:19:32;;;;;;;;;;;;;;;-0.09;95.54;102284.69;4924825;29;1003;-93
2022/01/14 08:21:58;;;;;;;;;;;;;;;-0.11;95.66;102292.09;4965544;28;1210;-94
2022/01/14 08:24:23;;;;;;;;;;;;;;;-0.08;95.53;102297.97;4979029;28;1281;-93
2022/01/14 08:26:48;;;;;;;;;;;;;;;-0.06;95.60;102301.34;4978757;28;1189;-94
2022/01/14 08:29:13;;;;;;;;;;;;;;;-0.03;95.54;102301.03;4978750;28;1182;-94
2022/01/14 08:31:38;;;;;;;;;;;;;;;0.01;95.67;102309.59;4978455;28;1212;-93
2022/01/14 08:34:03;;;;;;;;;;;;;;;-0.02;95.49;102313.47;4978527;28;1228;-93
2022/01/14 08:36:30;;;;;;;;;;;;;;;0.02;95.55;102308.56;4978059;28;1890;-94
2022/01/14 08:38:55;;;;;;;;;;;;;;;-0.01;95.78;102308.94;4978240;28;1383;-93
2022/01/14 08:41:28;;;;;;;;;;;;;;;-0.01;95.86;102314.31;4978607;28;1239;-92
2022/01/14 08:53:30;;;;;;;;;;;;;;;-0.02;95.92;102318.84;4936374;28;1138;-93
2022/01/14 08:55:56;;;;;;;;;;;;;;;0.04;95.88;102324.56;4935657;29;1882;-93
2022/01/14 08:58:22;;;;;;;;;;;;;;;0.05;95.75;102323.56;4936376;29;1412;-93
2022/01/14 09:00:54;;;;;;;;;;;;;;;0.11;95.90;102318.34;4964822;28;1234;-92
2022/01/14 09:03:20;;;;;;;;;;;;;;;0.19;95.93;102321.03;4978475;28;1264;-93
2022/01/14 09:05:45;;;;;;;;;;;;;;;0.18;95.77;102323.91;4978263;28;1566;-93
2022/01/14 09:08:12;;;;;;;;;;;;;;;0.23;95.73;102324.25;4978045;28;1635;-92
2022/01/14 09:10:39;;;;;;;;;;;;;;;0.40;95.65;102339.41;4995826;28;910;-92
2022/01/14 15:39:21;;;;;;;;;;;;;;;1.85;97.75;102208.50;5025890;23;2135;-86
2022/01/14 15:41:47;;;;;;;;;;;;;;;1.82;97.82;102208.00;5015096;28;933;-85
2022/01/14 15:44:13;;;;;;;;;;;;;;;1.82;98.03;102211.53;4991785;28;1383;-86
2022/01/14 15:46:39;;;;;;;;;;;;;;;1.79;98.32;102208.34;5015792;28;843;-87
2022/01/14 15:49:04;;;;;;;;;;;;;;;1.81;98.07;102209.00;4999940;28;1258;-88
2022/01/14 15:51:29;;;;;;;;;;;;;;;1.81;98.03;102200.91;4995151;28;1320;-88
2022/01/14 15:53:55;;;;;;;;;;;;;;;1.80;98.24;102204.63;4996019;28;1268;-88
2022/01/14 15:56:20;;;;;;;;;;;;;;;1.80;98.16;102212.72;4995633;28;1970;-89
2022/01/14 15:58:46;;;;;;;;;;;;;;;1.80;98.07;102208.19;4977334;28;1337;-89
2022/01/14 16:01:12;;;;;;;;;;;;;;;1.80;98.40;102216.28;4979881;28;1732;-91
2022/01/14 16:03:37;;;;;;;;;;;;;;;1.81;98.49;102217.13;4976935;28;1462;-89
2022/01/14 16:06:03;;;;;;;;;;;;;;;1.82;98.60;102214.25;4979080;28;1268;-91
2022/01/14 16:08:30;;;;;;;;;;;;;;;1.83;98.35;102207.81;4978779;28;1681;-89
2022/01/14 16:10:55;;;;;;;;;;;;;;;1.87;98.61;102208.31;4979075;28;1506;-89
2022/01/14 16:13:21;;;;;;;;;;;;;;;1.86;97.96;102210.19;4978191;28;1626;-88
2022/01/14 16:15:46;;;;;;;;;;;;;;;1.86;98.07;102210.19;4995792;28;1985;-87
2022/01/14 16:18:11;;;;;;;;;;;;;;;1.82;98.24;102211.53;4978196;28;1782;-88
2022/01/14 16:20:36;;;;;;;;;;;;;;;1.82;98.40;102200.75;4978484;28;1148;-88
2022/01/14 16:23:02;;;;;;;;;;;;;;;1.84;98.54;102201.41;4995279;28;1048;-88
2022/01/14 16:25:28;;;;;;;;;;;;;;;1.85;98.07;102204.94;4978157;28;1210;-89
2022/01/14 16:27:53;;;;;;;;;;;;;;;1.87;98.64;102206.44;4995404;28;1315;-88
2022/01/14 16:30:19;;;;;;;;;;;;;;;1.90;98.44;102203.38;4994700;28;906;-87
2022/01/14 16:32:45;;;;;;;;;;;;;;;1.89;98.30;102209.78;4977327;28;1486;-88
2022/01/14 16:35:10;;;;;;;;;;;;;;;1.88;98.44;102208.09;4977133;28;867;-88
2022/01/14 16:37:36;;;;;;;;;;;;;;;1.91;98.61;102215.00;4988105;28;1965;-90
2022/01/14 16:40:02;;;;;;;;;;;;;;;1.90;98.38;102208.78;4958059;28;1313;-89
2022/01/14 16:42:28;;;;;;;;;;;;;;;1.90;98.07;102211.47;4975180;28;1414;-91
2022/01/14 16:44:54;;;;;;;;;;;;;;;1.94;98.14;102201.16;4976772;28;1699;-89
2022/01/14 16:47:21;;;;;;;;;;;;;;;1.93;98.72;102199.47;4994715;28;1272;-89
2022/01/14 16:49:47;;;;;;;;;;;;;;;1.93;98.29;102209.44;4973287;28;1443;-90
2022/01/14 16:52:12;;;;;;;;;;;;;;;1.92;98.62;102202.34;4975513;28;1318;-90
2022/01/14 16:54:38;;;;;;;;;;;;;;;1.93;98.32;102204.88;4976388;28;1440;-89
2022/01/14 16:57:04;;;;;;;;;;;;;;;1.92;98.42;102216.69;4980521;28;1899;-89
2022/01/14 16:59:30;;;;;;;;;;;;;;;1.89;98.50;102207.09;4981180;28;1350;-90
2022/01/14 17:01:56;;;;;;;;;;;;;;;1.88;98.28;102207.25;4993612;28;1346;-89
2022/01/14 17:04:21;;;;;;;;;;;;;;;1.87;98.49;102206.44;4975898;28;1549;-88
2022/01/14 17:06:50;;;;;;;;;;;;;;;1.88;98.69;102210.81;4976130;28;1605;-90
2022/01/14 17:09:16;;;;;;;;;;;;;;;1.94;98.76;102208.41;4972507;28;1497;-89
2022/01/14 17:11:41;;;;;;;;;;;;;;;1.93;98.73;102207.56;4960479;28;1929;-90
2022/01/14 17:14:07;;;;;;;;;;;;;;;1.91;98.63;102209.63;4976595;28;1448;-89
2022/01/14 17:16:32;;;;;;;;;;;;;;;1.92;98.67;102203.19;4975811;28;1890;-89
2022/01/14 17:18:58;;;;;;;;;;;;;;;1.93;98.48;102204.03;4976210;28;1943;-89
2022/01/14 17:21:23;;;;;;;;;;;;;;;1.90;98.94;102203.38;4974260;28;1614;-89
2022/01/14 17:23:48;;;;;;;;;;;;;;;1.95;98.44;102196.59;4970591;28;1590;-89
2022/01/14 17:26:14;;;;;;;;;;;;;;;1.94;98.64;102206.56;4975903;28;1662;-89
2022/01/14 17:28:39;;;;;;;;;;;;;;;1.90;98.68;102207.94;4975798;28;1581;-90
2022/01/14 17:31:05;;;;;;;;;;;;;;;1.88;98.50;102191.06;4976104;28;1422;-90
2022/01/14 17:33:31;;;;;;;;;;;;;;;1.88;98.83;102202.72;4993344;28;1351;-90
2022/01/14 17:35:57;;;;;;;;;;;;;;;1.88;98.76;102201.88;4993493;28;2020;-91
2022/01/14 17:38:27;;;;;;;;;;;;;;;1.88;98.87;102205.41;4976142;28;1707;-88
2022/01/14 17:41:01;;;;;;;;;;;;;;;1.87;98.92;102217.22;4948354;28;1578;-89
2022/01/14 17:43:47;;;;;;;;;;;;;;;1.89;98.78;102212.50;4987575;28;1511;-89
2022/01/14 17:46:34;;;;;;;;;;;;;;;1.86;99.00;102204.78;4990303;28;1671;-88
2022/01/14 17:49:00;;;;;;;;;;;;;;;1.87;99.25;102202.91;4979294;28;1423;-90
2022/01/14 17:51:27;;;;;;;;;;;;;;;1.88;98.93;102201.88;4974164;28;1420;-89
2022/01/14 17:53:53;;;;;;;;;;;;;;;1.86;99.32;102201.22;4971922;28;1534;-90
2022/01/14 17:56:19;;;;;;;;;;;;;;;1.89;99.15;102201.69;4991458;28;1936;-90
2022/01/14 17:58:44;;;;;;;;;;;;;;;1.90;98.97;102199.81;4999036;28;1289;-92
2022/01/14 18:01:09;;;;;;;;;;;;;;;1.89;99.21;102199.00;4997321;28;1356;-91
2022/01/14 18:03:35;;;;;;;;;;;;;;;1.89;98.92;102201.69;4975213;28;1548;-90
2022/01/14 18:06:00;;;;;;;;;;;;;;;1.89;99.27;102199.00;4985894;28;1382;-90
2022/01/14 18:08:26;;;;;;;;;;;;;;;1.92;99.09;102205.91;4976504;28;1562;-90
2022/01/14 18:10:51;;;;;;;;;;;;;;;1.92;98.87;102196.94;4995932;28;1429;-89
2022/01/14 18:13:36;;;;;;;;;;;;;;;1.89;98.80;102198.16;4993874;28;1333;-90
2022/01/14 18:16:01;;;;;;;;;;;;;;;1.90;99.14;102199.81;4996550;28;1954;-90
2022/01/14 18:18:26;;;;;;;;;;;;;;;1.89;99.01;102196.28;4979662;28;1701;-89
2022/01/14 18:20:52;;;;;;;;;;;;;;;1.90;99.16;102197.97;4980108;28;1612;-89
2022/01/14 18:23:17;;;;;;;;;;;;;;;1.92;99.14;102196.94;4988684;28;1669;-91
2022/01/14 18:25:42;;;;;;;;;;;;;;;1.93;99.15;102195.94;4982292;28;1629;-90
2022/01/14 18:28:07;;;;;;;;;;;;;;;1.93;99.35;102206.72;4987321;28;1688;-88
2022/01/14 18:30:32;;;;;;;;;;;;;;;1.93;99.05;102204.03;4992918;28;1665;-91
2022/01/14 18:32:57;;;;;;;;;;;;;;;1.95;99.50;102200.16;4977364;28;1594;-89
2022/01/14 18:35:23;;;;;;;;;;;;;;;1.96;99.44;102209.09;4978011;28;1508;-90
2022/01/14 18:37:48;;;;;;;;;;;;;;;1.97;99.02;102210.72;4979109;28;1890;-90
2022/01/14 18:40:14;;;;;;;;;;;;;;;1.98;98.92;102212.41;4979785;28;1692;-88
2022/01/14 18:42:40;;;;;;;;;;;;;;;1.98;99.45;102202.47;4980233;28;1534;-92
2022/01/14 18:45:18;;;;;;;;;;;;;;;1.97;99.30;102197.22;4979801;28;1706;-91
2022/01/14 18:47:44;;;;;;;;;;;;;;;1.99;99.42;102197.91;4995514;28;1335;-90
2022/01/14 18:50:09;;;;;;;;;;;;;;;1.99;99.11;102198.75;4997047;28;1176;-90
2022/01/14 18:52:34;;;;;;;;;;;;;;;1.95;99.29;102208.25;4996703;28;1267;-90
2022/01/14 18:54:59;;;;;;;;;;;;;;;1.96;99.41;102207.19;4996887;28;1307;-90
2022/01/14 18:57:24;;;;;;;;;;;;;;;1.97;99.26;102208.03;4996523;28;1902;-90
2022/01/14 18:59:50;;;;;;;;;;;;;;;1.96;99.37;102209.09;4978662;28;1025;-91
2022/01/14 19:02:20;;;;;;;;;;;;;;;1.98;99.46;102215.13;4978815;28;1294;-90
2022/01/14 19:04:46;;;;;;;;;;;;;;;1.99;99.16;102225.75;4978873;28;1524;-89
2022/01/14 19:07:11;;;;;;;;;;;;;;;2.02;99.43;102220.00;4979140;28;1461;-89
2022/01/14 19:09:36;;;;;;;;;;;;;;;2.05;99.29;102219.59;4979032;28;1583;-89
2022/01/14 19:12:02;;;;;;;;;;;;;;;2.05;99.35;102214.19;4978205;28;1605;-90
2022/01/14 19:14:27;;;;;;;;;;;;;;;2.04;98.97;102222.50;4996419;28;1596;-89
2022/01/14 19:16:52;;;;;;;;;;;;;;;2.01;99.24;102214.75;4995360;28;1971;-89
2022/01/14 19:19:19;;;;;;;;;;;;;;;2.03;99.52;102212.72;4994978;28;1208;-90
2022/01/14 19:21:45;;;;;;;;;;;;;;;2.01;99.27;102204.81;4994537;28;836;-91
2022/01/14 19:24:11;;;;;;;;;;;;;;;2.03;99.19;102205.47;4995733;28;1527;-89
2022/01/14 19:26:36;;;;;;;;;;;;;;;2.05;99.31;102211.50;4995519;28;1330;-90
2022/01/14 19:29:03;;;;;;;;;;;;;;;2.05;99.14;102216.06;4978471;28;1228;-90
2022/01/14 19:31:28;;;;;;;;;;;;;;;2.03;99.09;102201.94;4996247;28;1319;-89
2022/01/14 19:33:54;;;;;;;;;;;;;;;2.04;99.56;102209.81;4995942;28;1578;-89
2022/01/14 19:36:19;;;;;;;;;;;;;;;2.03;99.01;102216.28;4995094;28;1898;-88
2022/01/14 19:38:44;;;;;;;;;;;;;;;2.01;99.21;102221.00;4977996;28;1645;-90
2022/01/14 19:41:09;;;;;;;;;;;;;;;2.03;99.59;102210.88;4978341;28;1421;-89
2022/01/14 19:43:35;;;;;;;;;;;;;;;2.03;99.45;102194.66;4977646;28;1460;-91
2022/01/14 19:46:01;;;;;;;;;;;;;;;2.05;99.51;102191.75;4979464;28;1482;-90
2022/01/14 19:48:27;;;;;;;;;;;;;;;2.05;99.68;102199.84;4995905;28;1587;-91
2022/01/14 19:50:52;;;;;;;;;;;;;;;2.05;99.56;102199.84;4977960;28;1193;-89
2022/01/14 19:53:17;;;;;;;;;;;;;;;2.06;99.42;102193.44;4994935;28;1512;-88
2022/01/14 19:55:43;;;;;;;;;;;;;;;2.04;99.42;102195.50;4995767;28;859;-90
2022/01/14 19:58:08;;;;;;;;;;;;;;;2.03;99.30;102210.88;4977670;28;1903;-89
2022/01/14 20:00:34;;;;;;;;;;;;;;;2.06;99.44;102215.03;4996552;28;1667;-88
2022/01/14 20:03:00;;;;;;;;;;;;;;;2.07;99.34;102205.94;4978539;28;1845;-90
2022/01/14 20:05:30;;;;;;;;;;;;;;;2.07;99.68;102189.72;4996176;28;1449;-92
2022/01/14 20:07:55;;;;;;;;;;;;;;;2.08;99.52;102189.53;4978828;28;1551;-91
2022/01/14 20:10:21;;;;;;;;;;;;;;;2.11;99.14;102196.44;4977684;28;1602;-90
2022/01/14 20:12:46;;;;;;;;;;;;;;;2.09;99.35;102201.19;4978928;28;1398;-90
2022/01/14 20:15:12;;;;;;;;;;;;;;;2.08;99.44;102207.59;4978081;28;1540;-89
2022/01/14 20:17:38;;;;;;;;;;;;;;;2.07;99.23;102206.75;4977151;28;2010;-89
2022/01/14 20:20:04;;;;;;;;;;;;;;;2.09;99.42;102203.88;4994634;28;1532;-89
2022/01/14 20:22:29;;;;;;;;;;;;;;;2.09;99.57;102206.59;4993357;28;1507;-91
2022/01/14 20:24:54;;;;;;;;;;;;;;;2.09;99.27;102201.19;4978301;28;1050;-89
2022/01/14 20:27:20;;;;;;;;;;;;;;;2.13;99.47;102191.69;4978443;28;1528;-91
2022/01/14 20:29:45;;;;;;;;;;;;;;;2.13;99.78;102189.81;4977758;28;1309;-90
2022/01/14 20:32:10;;;;;;;;;;;;;;;2.13;99.49;102203.31;4994333;28;1507;-90
2022/01/14 20:34:35;;;;;;;;;;;;;;;2.13;99.41;102216.00;4993686;28;1717;-89
2022/01/14 20:37:00;;;;;;;;;;;;;;;2.11;99.43;102212.66;4993083;28;1959;-87
2022/01/14 20:39:25;;;;;;;;;;;;;;;2.12;99.62;102203.53;4994668;28;1276;-90
2022/01/14 20:41:51;;;;;;;;;;;;;;;2.14;99.49;102191.50;4976272;28;1697;-89
2022/01/14 20:44:18;;;;;;;;;;;;;;;2.18;99.56;102191.97;4993778;28;1431;-89
2022/01/14 20:46:43;;;;;;;;;;;;;;;2.21;99.19;102203.25;4972809;28;1422;-90
2022/01/14 20:49:09;;;;;;;;;;;;;;;2.18;99.20;102202.78;4996110;28;1204;-90
2022/01/14 20:51:36;;;;;;;;;;;;;;;2.15;99.43;102192.34;4976501;28;1267;-91
2022/01/14 20:54:02;;;;;;;;;;;;;;;2.16;99.31;102172.41;4993671;28;1130;-90
2022/01/14 20:56:28;;;;;;;;;;;;;;;2.18;99.42;102186.59;4985058;28;1907;-91
2022/01/14 20:58:53;;;;;;;;;;;;;;;2.15;99.80;102192.34;4987240;28;1205;-87
2022/01/14 21:01:19;;;;;;;;;;;;;;;2.19;99.51;102197.22;4994063;28;1125;-90
2022/01/14 21:03:45;;;;;;;;;;;;;;;2.22;99.70;102185.16;4976428;28;1178;-89
2022/01/14 21:06:10;;;;;;;;;;;;;;;2.20;99.56;102181.84;4975192;28;1548;-89
2022/01/14 21:08:36;;;;;;;;;;;;;;;2.19;99.17;102190.97;4975081;28;1342;-89
2022/01/14 21:11:01;;;;;;;;;;;;;;;2.21;99.28;102197.03;4976507;28;1740;-90
2022/01/14 21:13:26;;;;;;;;;;;;;;;2.20;99.62;102196.19;4993313;28;1327;-89
2022/01/14 21:15:51;;;;;;;;;;;;;;;2.20;99.29;102189.94;4975311;28;1898;-89
2022/01/14 21:18:17;;;;;;;;;;;;;;;2.20;99.89;102189.94;4994027;28;1309;-89
2022/01/14 21:20:42;;;;;;;;;;;;;;;2.24;99.89;102196.63;4974414;28;1410;-89
2022/01/14 21:23:07;;;;;;;;;;;;;;;2.27;99.60;102190.88;4975600;28;1363;-87
2022/01/14 21:25:33;;;;;;;;;;;;;;;2.27;99.47;102189.03;4993194;28;1516;-89
2022/01/14 21:27:58;;;;;;;;;;;;;;;2.25;99.33;102192.91;4975829;28;1769;-88
2022/01/14 21:30:23;;;;;;;;;;;;;;;2.23;99.50;102187.69;4993156;28;1923;-90
2022/01/14 21:32:49;;;;;;;;;;;;;;;2.22;99.52;102183.31;4975967;28;1910;-90
2022/01/14 21:35:14;;;;;;;;;;;;;;;2.25;99.45;102187.50;4983567;28;1649;-90
2022/01/14 21:37:39;;;;;;;;;;;;;;;2.23;99.73;102186.84;4984859;28;1936;-90
2022/01/14 21:45:08;;;;;;;;;;;;;;;2.31;99.37;102183.22;4994216;28;1154;-91
2022/01/14 21:47:33;;;;;;;;;;;;;;;2.32;99.75;102183.03;4978025;28;1186;-91
2022/01/14 21:50:01;;;;;;;;;;;;;;;2.31;99.33;102178.66;4963573;28;1269;-90
2022/01/14 21:52:26;;;;;;;;;;;;;;;2.28;99.83;102179.91;4957839;28;1512;-90
2022/01/14 21:54:52;;;;;;;;;;;;;;;2.29;99.66;102178.03;4950723;28;1272;-91
2022/01/14 21:57:17;;;;;;;;;;;;;;;2.30;99.74;102178.88;4958402;28;2061;-91
2022/01/14 21:59:43;;;;;;;;;;;;;;;2.26;99.39;102170.28;4958862;28;1296;-92
2022/01/14 22:02:09;;;;;;;;;;;;;;;2.27;99.52;102164.69;4957973;28;1110;-91
2022/01/14 22:04:34;;;;;;;;;;;;;;;2.29;99.98;102167.22;4958831;28;1225;-92
2022/01/14 22:07:08;;;;;;;;;;;;;;;2.27;99.90;102169.25;4959082;28;1244;-91
2022/01/14 22:09:34;;;;;;;;;;;;;;;2.24;99.83;102169.63;4957686;28;1272;-91
2022/01/14 22:12:01;;;;;;;;;;;;;;;2.25;99.44;102172.16;4963817;28;1661;-91
2022/01/14 22:14:28;;;;;;;;;;;;;;;2.27;99.55;102158.47;4965863;28;1398;-91
2022/01/14 22:16:54;;;;;;;;;;;;;;;2.27;99.60;102153.91;4967858;28;1894;-90
2022/01/14 22:19:20;;;;;;;;;;;;;;;2.26;99.71;102156.78;4960442;28;1946;-91
2022/01/14 22:21:45;;;;;;;;;;;;;;;2.25;99.87;102157.78;4971864;28;1862;-91
2022/01/14 22:24:10;;;;;;;;;;;;;;;2.25;99.90;102144.28;4969851;28;1209;-90